Terminal Aerodrome Forecast
Issued by NWS

Home | Current Version | Previous Version | Text Only | Print | Product List | Glossary On
Versions: 1 2 3 4 5 6 7 8 9 10 11 12 13 14 15 16 17
000
FTUS46 KSTO 281700
TAFSMF
TAF
KSMF 281724Z 2818/2918 VRB03KT 2SM BR FEW002
      TEMPO 2818/2819 1/4SM FG BKN002
     FM281900 VRB03KT 4SM BR BKN250
     FM282100 19006KT 6SM HZ SCT150 BKN200
     FM290000 19006KT P6SM OVC050
     FM290300 VRB04KT 3SM -RA OVC015=

USA.gov is the U.S. government's official web portal to all federal, state and local government web resources and services.